sensor_id;sensor_type;location;lat;lon;timestamp;P1;durP1;ratioP1;P2;durP2;ratioP2
12869;SDS011;6503;48.572;13.460;2022-08-26T00:02:20;21.13;;;12.82;;
12869;SDS011;6503;48.572;13.460;2022-08-26T00:04:50;20.38;;;12.40;;
12869;SDS011;6503;48.572;13.460;2022-08-26T00:07:20;20.45;;;12.20;;
12869;SDS011;6503;48.572;13.460;2022-08-26T00:09:49;21.58;;;13.65;;
12869;SDS011;6503;48.572;13.460;2022-08-26T00:12:22;16.95;;;12.65;;
12869;SDS011;6503;48.572;13.460;2022-08-26T00:14:52;22.75;;;13.93;;
12869;SDS011;6503;48.572;13.460;2022-08-26T00:17:21;14.70;;;12.88;;
12869;SDS011;6503;48.572;13.460;2022-08-26T00:19:51;26.98;;;13.60;;
12869;SDS011;6503;48.572;13.460;2022-08-26T00:22:20;20.33;;;13.73;;
12869;SDS011;6503;48.572;13.460;2022-08-26T00:24:50;19.13;;;12.18;;
12869;SDS011;6503;48.572;13.460;2022-08-26T00:27:21;16.90;;;12.65;;
12869;SDS011;6503;48.572;13.460;2022-08-26T00:29:52;17.50;;;12.68;;
12869;SDS011;6503;48.572;13.460;2022-08-26T00:32:22;19.70;;;12.60;;
12869;SDS011;6503;48.572;13.460;2022-08-26T00:34:52;26.13;;;13.15;;
12869;SDS011;6503;48.572;13.460;2022-08-26T00:37:21;23.10;;;12.27;;
12869;SDS011;6503;48.572;13.460;2022-08-26T00:39:51;18.38;;;12.73;;
12869;SDS011;6503;48.572;13.460;2022-08-26T00:42:23;18.25;;;12.30;;
12869;SDS011;6503;48.572;13.460;2022-08-26T00:44:53;18.17;;;12.57;;
12869;SDS011;6503;48.572;13.460;2022-08-26T00:47:23;15.20;;;12.13;;
12869;SDS011;6503;48.572;13.460;2022-08-26T00:50:00;22.05;;;12.85;;
12869;SDS011;6503;48.572;13.460;2022-08-26T00:52:32;19.55;;;12.90;;
12869;SDS011;6503;48.572;13.460;2022-08-26T00:55:05;21.33;;;13.10;;
12869;SDS011;6503;48.572;13.460;2022-08-26T00:57:41;22.52;;;13.07;;
12869;SDS011;6503;48.572;13.460;2022-08-26T01:00:14;17.42;;;12.63;;
12869;SDS011;6503;48.572;13.460;2022-08-26T01:02:45;17.80;;;13.20;;
12869;SDS011;6503;48.572;13.460;2022-08-26T01:05:17;19.95;;;12.80;;
12869;SDS011;6503;48.572;13.460;2022-08-26T01:07:47;18.38;;;12.73;;
12869;SDS011;6503;48.572;13.460;2022-08-26T01:10:18;17.35;;;12.32;;
12869;SDS011;6503;48.572;13.460;2022-08-26T01:12:54;21.00;;;12.90;;
12869;SDS011;6503;48.572;13.460;2022-08-26T01:15:26;19.05;;;12.18;;
12869;SDS011;6503;48.572;13.460;2022-08-26T01:18:00;22.13;;;12.75;;
12869;SDS011;6503;48.572;13.460;2022-08-26T01:20:34;18.55;;;12.65;;
12869;SDS011;6503;48.572;13.460;2022-08-26T01:23:12;22.30;;;13.77;;
12869;SDS011;6503;48.572;13.460;2022-08-26T01:25:44;16.95;;;11.90;;
12869;SDS011;6503;48.572;13.460;2022-08-26T01:28:18;20.65;;;13.10;;
12869;SDS011;6503;48.572;13.460;2022-08-26T01:30:53;22.98;;;13.48;;
12869;SDS011;6503;48.572;13.460;2022-08-26T01:35:54;21.67;;;12.93;;
12869;SDS011;6503;48.572;13.460;2022-08-26T01:38:28;19.40;;;12.10;;
12869;SDS011;6503;48.572;13.460;2022-08-26T01:40:57;21.15;;;12.48;;
12869;SDS011;6503;48.572;13.460;2022-08-26T01:43:29;18.98;;;13.07;;
12869;SDS011;6503;48.572;13.460;2022-08-26T01:46:02;17.33;;;12.80;;
12869;SDS011;6503;48.572;13.460;2022-08-26T01:48:32;21.45;;;12.15;;
12869;SDS011;6503;48.572;13.460;2022-08-26T01:53:34;22.00;;;14.23;;
12869;SDS011;6503;48.572;13.460;2022-08-26T01:56:04;19.45;;;12.23;;
12869;SDS011;6503;48.572;13.460;2022-08-26T01:58:36;24.17;;;12.63;;
12869;SDS011;6503;48.572;13.460;2022-08-26T02:01:08;20.13;;;12.38;;
12869;SDS011;6503;48.572;13.460;2022-08-26T02:03:46;22.35;;;13.25;;
12869;SDS011;6503;48.572;13.460;2022-08-26T02:06:22;23.50;;;12.48;;
12869;SDS011;6503;48.572;13.460;2022-08-26T02:08:53;16.90;;;12.43;;
12869;SDS011;6503;48.572;13.460;2022-08-26T02:11:26;18.63;;;12.77;;
12869;SDS011;6503;48.572;13.460;2022-08-26T02:13:56;18.08;;;12.90;;
12869;SDS011;6503;48.572;13.460;2022-08-26T02:16:31;20.20;;;12.48;;
12869;SDS011;6503;48.572;13.460;2022-08-26T02:19:04;20.92;;;12.85;;
12869;SDS011;6503;48.572;13.460;2022-08-26T02:21:37;17.35;;;13.13;;
12869;SDS011;6503;48.572;13.460;2022-08-26T02:24:10;18.70;;;12.40;;
12869;SDS011;6503;48.572;13.460;2022-08-26T02:26:41;16.00;;;12.30;;
12869;SDS011;6503;48.572;13.460;2022-08-26T02:29:19;17.20;;;13.43;;
12869;SDS011;6503;48.572;13.460;2022-08-26T02:31:54;25.08;;;13.60;;
12869;SDS011;6503;48.572;13.460;2022-08-26T02:34:26;16.67;;;12.95;;
12869;SDS011;6503;48.572;13.460;2022-08-26T02:36:58;23.75;;;13.85;;
12869;SDS011;6503;48.572;13.460;2022-08-26T02:39:31;16.90;;;13.48;;
12869;SDS011;6503;48.572;13.460;2022-08-26T02:42:02;21.27;;;13.00;;
12869;SDS011;6503;48.572;13.460;2022-08-26T02:47:01;19.17;;;13.15;;
12869;SDS011;6503;48.572;13.460;2022-08-26T02:49:31;18.50;;;13.80;;
12869;SDS011;6503;48.572;13.460;2022-08-26T02:52:00;22.13;;;13.93;;
12869;SDS011;6503;48.572;13.460;2022-08-26T02:54:31;23.83;;;13.63;;
12869;SDS011;6503;48.572;13.460;2022-08-26T02:57:01;19.23;;;14.15;;
12869;SDS011;6503;48.572;13.460;2022-08-26T02:59:32;23.95;;;14.48;;
12869;SDS011;6503;48.572;13.460;2022-08-26T03:02:04;26.50;;;15.15;;
12869;SDS011;6503;48.572;13.460;2022-08-26T03:04:35;20.70;;;13.55;;
12869;SDS011;6503;48.572;13.460;2022-08-26T03:07:05;23.70;;;14.20;;
12869;SDS011;6503;48.572;13.460;2022-08-26T03:09:37;23.48;;;15.40;;
12869;SDS011;6503;48.572;13.460;2022-08-26T03:12:07;23.67;;;14.45;;
12869;SDS011;6503;48.572;13.460;2022-08-26T03:14:37;21.77;;;14.45;;
12869;SDS011;6503;48.572;13.460;2022-08-26T03:17:06;24.42;;;14.77;;
12869;SDS011;6503;48.572;13.460;2022-08-26T03:22:08;27.08;;;14.90;;
12869;SDS011;6503;48.572;13.460;2022-08-26T03:24:40;24.58;;;16.55;;
12869;SDS011;6503;48.572;13.460;2022-08-26T03:27:09;25.48;;;15.15;;
12869;SDS011;6503;48.572;13.460;2022-08-26T03:29:39;21.40;;;15.50;;
12869;SDS011;6503;48.572;13.460;2022-08-26T03:32:26;21.45;;;14.63;;
12869;SDS011;6503;48.572;13.460;2022-08-26T03:34:55;21.73;;;14.65;;
12869;SDS011;6503;48.572;13.460;2022-08-26T03:37:25;25.52;;;14.88;;
12869;SDS011;6503;48.572;13.460;2022-08-26T03:39:59;20.02;;;14.40;;
12869;SDS011;6503;48.572;13.460;2022-08-26T03:42:29;24.45;;;14.13;;
12869;SDS011;6503;48.572;13.460;2022-08-26T03:44:58;24.55;;;15.32;;
12869;SDS011;6503;48.572;13.460;2022-08-26T03:47:27;26.10;;;15.35;;
12869;SDS011;6503;48.572;13.460;2022-08-26T03:50:01;23.08;;;15.00;;
12869;SDS011;6503;48.572;13.460;2022-08-26T03:52:31;22.67;;;14.45;;
12869;SDS011;6503;48.572;13.460;2022-08-26T03:55:03;19.20;;;14.20;;
12869;SDS011;6503;48.572;13.460;2022-08-26T03:57:35;18.27;;;14.20;;
12869;SDS011;6503;48.572;13.460;2022-08-26T04:00:06;23.77;;;15.75;;
12869;SDS011;6503;48.572;13.460;2022-08-26T04:02:41;22.83;;;14.73;;
12869;SDS011;6503;48.572;13.460;2022-08-26T04:05:12;18.10;;;14.27;;
12869;SDS011;6503;48.572;13.460;2022-08-26T04:07:42;20.95;;;14.80;;
12869;SDS011;6503;48.572;13.460;2022-08-26T04:10:15;23.85;;;14.70;;
12869;SDS011;6503;48.572;13.460;2022-08-26T04:12:47;22.42;;;15.63;;
12869;SDS011;6503;48.572;13.460;2022-08-26T04:15:16;21.33;;;15.40;;
12869;SDS011;6503;48.572;13.460;2022-08-26T04:17:47;21.27;;;15.25;;
12869;SDS011;6503;48.572;13.460;2022-08-26T04:20:17;19.40;;;14.23;;
12869;SDS011;6503;48.572;13.460;2022-08-26T04:22:49;21.92;;;15.32;;
12869;SDS011;6503;48.572;13.460;2022-08-26T04:25:21;19.38;;;14.00;;
12869;SDS011;6503;48.572;13.460;2022-08-26T04:27:52;17.88;;;14.60;;
12869;SDS011;6503;48.572;13.460;2022-08-26T04:30:21;23.10;;;15.27;;
12869;SDS011;6503;48.572;13.460;2022-08-26T04:32:51;20.23;;;14.90;;
12869;SDS011;6503;48.572;13.460;2022-08-26T04:35:20;21.50;;;15.37;;
12869;SDS011;6503;48.572;13.460;2022-08-26T04:37:50;20.13;;;15.13;;
12869;SDS011;6503;48.572;13.460;2022-08-26T04:40:21;22.13;;;14.27;;
12869;SDS011;6503;48.572;13.460;2022-08-26T04:42:52;22.63;;;15.82;;
12869;SDS011;6503;48.572;13.460;2022-08-26T04:45:22;25.55;;;16.88;;
12869;SDS011;6503;48.572;13.460;2022-08-26T04:47:52;26.40;;;16.40;;
12869;SDS011;6503;48.572;13.460;2022-08-26T04:50:23;25.65;;;17.65;;
12869;SDS011;6503;48.572;13.460;2022-08-26T04:52:53;25.97;;;17.03;;
12869;SDS011;6503;48.572;13.460;2022-08-26T04:55:24;25.45;;;16.13;;
12869;SDS011;6503;48.572;13.460;2022-08-26T04:57:54;23.75;;;16.80;;
12869;SDS011;6503;48.572;13.460;2022-08-26T05:00:24;22.65;;;16.58;;
12869;SDS011;6503;48.572;13.460;2022-08-26T05:02:54;24.23;;;16.08;;
12869;SDS011;6503;48.572;13.460;2022-08-26T05:05:24;22.65;;;16.42;;
12869;SDS011;6503;48.572;13.460;2022-08-26T05:07:55;21.95;;;15.82;;
12869;SDS011;6503;48.572;13.460;2022-08-26T05:10:27;24.02;;;15.93;;
12869;SDS011;6503;48.572;13.460;2022-08-26T05:12:59;24.38;;;16.65;;
12869;SDS011;6503;48.572;13.460;2022-08-26T05:15:30;23.80;;;16.65;;
12869;SDS011;6503;48.572;13.460;2022-08-26T05:20:30;24.67;;;16.30;;
12869;SDS011;6503;48.572;13.460;2022-08-26T05:23:03;28.52;;;16.63;;
12869;SDS011;6503;48.572;13.460;2022-08-26T05:25:40;17.98;;;14.80;;
12869;SDS011;6503;48.572;13.460;2022-08-26T05:28:13;20.80;;;15.07;;
12869;SDS011;6503;48.572;13.460;2022-08-26T05:30:45;25.58;;;16.20;;
12869;SDS011;6503;48.572;13.460;2022-08-26T05:33:16;21.85;;;15.40;;
12869;SDS011;6503;48.572;13.460;2022-08-26T05:35:47;20.02;;;15.10;;
12869;SDS011;6503;48.572;13.460;2022-08-26T05:38:17;18.60;;;14.77;;
12869;SDS011;6503;48.572;13.460;2022-08-26T05:40:51;22.65;;;14.25;;
12869;SDS011;6503;48.572;13.460;2022-08-26T05:43:20;21.67;;;15.55;;
12869;SDS011;6503;48.572;13.460;2022-08-26T05:45:50;23.05;;;16.55;;
12869;SDS011;6503;48.572;13.460;2022-08-26T05:48:20;23.90;;;15.80;;
12869;SDS011;6503;48.572;13.460;2022-08-26T05:50:51;23.95;;;16.05;;
12869;SDS011;6503;48.572;13.460;2022-08-26T05:55:52;22.30;;;15.80;;
12869;SDS011;6503;48.572;13.460;2022-08-26T05:58:22;23.20;;;15.43;;
12869;SDS011;6503;48.572;13.460;2022-08-26T06:00:57;20.98;;;14.68;;
12869;SDS011;6503;48.572;13.460;2022-08-26T06:03:31;18.58;;;14.65;;
12869;SDS011;6503;48.572;13.460;2022-08-26T06:06:02;24.45;;;14.35;;
12869;SDS011;6503;48.572;13.460;2022-08-26T06:08:34;20.73;;;13.68;;
12869;SDS011;6503;48.572;13.460;2022-08-26T06:11:07;22.70;;;16.80;;
12869;SDS011;6503;48.572;13.460;2022-08-26T06:13:38;18.98;;;13.82;;
12869;SDS011;6503;48.572;13.460;2022-08-26T06:16:09;19.80;;;14.00;;
12869;SDS011;6503;48.572;13.460;2022-08-26T06:18:42;20.10;;;13.55;;
12869;SDS011;6503;48.572;13.460;2022-08-26T06:21:14;20.40;;;13.95;;
12869;SDS011;6503;48.572;13.460;2022-08-26T06:23:46;22.98;;;13.82;;
12869;SDS011;6503;48.572;13.460;2022-08-26T06:26:35;19.20;;;14.57;;
12869;SDS011;6503;48.572;13.460;2022-08-26T06:29:06;21.58;;;13.55;;
12869;SDS011;6503;48.572;13.460;2022-08-26T06:31:36;19.95;;;14.10;;
12869;SDS011;6503;48.572;13.460;2022-08-26T06:34:05;17.95;;;13.25;;
12869;SDS011;6503;48.572;13.460;2022-08-26T06:36:35;21.83;;;14.88;;
12869;SDS011;6503;48.572;13.460;2022-08-26T06:39:16;25.27;;;14.75;;
12869;SDS011;6503;48.572;13.460;2022-08-26T06:44:18;20.55;;;14.48;;
12869;SDS011;6503;48.572;13.460;2022-08-26T06:46:49;21.83;;;15.88;;
12869;SDS011;6503;48.572;13.460;2022-08-26T06:49:19;22.07;;;14.77;;
12869;SDS011;6503;48.572;13.460;2022-08-26T06:51:48;22.67;;;15.27;;
12869;SDS011;6503;48.572;13.460;2022-08-26T06:54:18;24.83;;;15.93;;
12869;SDS011;6503;48.572;13.460;2022-08-26T06:56:51;29.40;;;16.02;;
12869;SDS011;6503;48.572;13.460;2022-08-26T06:59:22;27.27;;;15.15;;
12869;SDS011;6503;48.572;13.460;2022-08-26T07:01:52;22.63;;;13.60;;
12869;SDS011;6503;48.572;13.460;2022-08-26T07:04:23;20.13;;;14.07;;
12869;SDS011;6503;48.572;13.460;2022-08-26T07:06:53;26.20;;;14.57;;
12869;SDS011;6503;48.572;13.460;2022-08-26T07:09:23;21.92;;;14.55;;
12869;SDS011;6503;48.572;13.460;2022-08-26T07:11:56;23.23;;;14.13;;
12869;SDS011;6503;48.572;13.460;2022-08-26T07:14:26;23.13;;;14.57;;
12869;SDS011;6503;48.572;13.460;2022-08-26T07:19:26;19.65;;;14.43;;
12869;SDS011;6503;48.572;13.460;2022-08-26T07:21:55;22.60;;;13.95;;
12869;SDS011;6503;48.572;13.460;2022-08-26T07:24:27;22.50;;;14.20;;
12869;SDS011;6503;48.572;13.460;2022-08-26T07:27:00;18.27;;;13.40;;
12869;SDS011;6503;48.572;13.460;2022-08-26T07:29:31;21.33;;;15.20;;
12869;SDS011;6503;48.572;13.460;2022-08-26T07:34:32;20.98;;;13.60;;
12869;SDS011;6503;48.572;13.460;2022-08-26T07:37:03;19.20;;;14.00;;
12869;SDS011;6503;48.572;13.460;2022-08-26T07:39:33;21.85;;;13.75;;
12869;SDS011;6503;48.572;13.460;2022-08-26T07:42:04;18.10;;;14.02;;
12869;SDS011;6503;48.572;13.460;2022-08-26T07:44:35;15.98;;;12.80;;
12869;SDS011;6503;48.572;13.460;2022-08-26T07:47:07;19.17;;;13.15;;
12869;SDS011;6503;48.572;13.460;2022-08-26T07:49:37;21.98;;;14.57;;
12869;SDS011;6503;48.572;13.460;2022-08-26T07:52:06;18.35;;;13.20;;
12869;SDS011;6503;48.572;13.460;2022-08-26T07:54:36;19.83;;;13.10;;
12869;SDS011;6503;48.572;13.460;2022-08-26T07:57:08;21.27;;;13.38;;
12869;SDS011;6503;48.572;13.460;2022-08-26T07:59:38;20.48;;;13.18;;
12869;SDS011;6503;48.572;13.460;2022-08-26T08:02:08;19.87;;;13.37;;
12869;SDS011;6503;48.572;13.460;2022-08-26T08:04:37;18.13;;;12.37;;
12869;SDS011;6503;48.572;13.460;2022-08-26T08:07:07;17.75;;;13.07;;
12869;SDS011;6503;48.572;13.460;2022-08-26T08:09:37;16.65;;;12.85;;
12869;SDS011;6503;48.572;13.460;2022-08-26T08:12:09;20.80;;;13.03;;
12869;SDS011;6503;48.572;13.460;2022-08-26T08:14:39;22.58;;;13.20;;
12869;SDS011;6503;48.572;13.460;2022-08-26T08:17:10;19.27;;;13.20;;
12869;SDS011;6503;48.572;13.460;2022-08-26T08:19:40;18.27;;;13.50;;
12869;SDS011;6503;48.572;13.460;2022-08-26T08:22:10;19.52;;;13.25;;
12869;SDS011;6503;48.572;13.460;2022-08-26T08:24:39;16.33;;;11.88;;
12869;SDS011;6503;48.572;13.460;2022-08-26T08:27:11;18.52;;;13.10;;
12869;SDS011;6503;48.572;13.460;2022-08-26T08:29:40;18.02;;;13.43;;
12869;SDS011;6503;48.572;13.460;2022-08-26T08:32:11;21.38;;;13.18;;
12869;SDS011;6503;48.572;13.460;2022-08-26T08:34:41;21.35;;;13.20;;
12869;SDS011;6503;48.572;13.460;2022-08-26T08:37:12;19.17;;;13.55;;
12869;SDS011;6503;48.572;13.460;2022-08-26T08:39:44;19.20;;;13.55;;
12869;SDS011;6503;48.572;13.460;2022-08-26T08:42:25;22.13;;;13.10;;
12869;SDS011;6503;48.572;13.460;2022-08-26T08:45:04;17.73;;;12.32;;
12869;SDS011;6503;48.572;13.460;2022-08-26T08:47:39;20.65;;;13.25;;
12869;SDS011;6503;48.572;13.460;2022-08-26T08:50:18;18.25;;;12.52;;
12869;SDS011;6503;48.572;13.460;2022-08-26T08:52:53;21.83;;;12.98;;
12869;SDS011;6503;48.572;13.460;2022-08-26T08:55:42;23.23;;;13.02;;
12869;SDS011;6503;48.572;13.460;2022-08-26T08:58:25;24.40;;;13.07;;
12869;SDS011;6503;48.572;13.460;2022-08-26T09:01:12;14.93;;;11.65;;
12869;SDS011;6503;48.572;13.460;2022-08-26T09:04:03;17.25;;;11.80;;
12869;SDS011;6503;48.572;13.460;2022-08-26T09:06:47;16.85;;;11.93;;
12869;SDS011;6503;48.572;13.460;2022-08-26T09:09:21;15.95;;;11.35;;
12869;SDS011;6503;48.572;13.460;2022-08-26T09:11:57;19.60;;;11.98;;
12869;SDS011;6503;48.572;13.460;2022-08-26T09:14:33;19.60;;;13.35;;
12869;SDS011;6503;48.572;13.460;2022-08-26T09:17:04;15.55;;;10.45;;
12869;SDS011;6503;48.572;13.460;2022-08-26T09:19:53;17.30;;;10.40;;
12869;SDS011;6503;48.572;13.460;2022-08-26T09:25:05;16.23;;;10.70;;
12869;SDS011;6503;48.572;13.460;2022-08-26T09:27:41;17.50;;;9.90;;
12869;SDS011;6503;48.572;13.460;2022-08-26T09:30:18;14.82;;;10.00;;
12869;SDS011;6503;48.572;13.460;2022-08-26T09:33:00;14.93;;;9.00;;
12869;SDS011;6503;48.572;13.460;2022-08-26T09:35:35;13.75;;;7.78;;
12869;SDS011;6503;48.572;13.460;2022-08-26T09:38:19;13.43;;;8.27;;
12869;SDS011;6503;48.572;13.460;2022-08-26T09:40:54;14.60;;;8.43;;
12869;SDS011;6503;48.572;13.460;2022-08-26T09:43:26;15.50;;;9.32;;
12869;SDS011;6503;48.572;13.460;2022-08-26T09:46:11;11.65;;;8.80;;
12869;SDS011;6503;48.572;13.460;2022-08-26T09:48:45;22.60;;;9.60;;
12869;SDS011;6503;48.572;13.460;2022-08-26T09:51:25;11.70;;;8.70;;
12869;SDS011;6503;48.572;13.460;2022-08-26T09:53:57;15.50;;;9.15;;
12869;SDS011;6503;48.572;13.460;2022-08-26T09:56:30;14.65;;;8.77;;
12869;SDS011;6503;48.572;13.460;2022-08-26T09:59:02;15.10;;;10.32;;
12869;SDS011;6503;48.572;13.460;2022-08-26T10:04:07;19.25;;;10.30;;
12869;SDS011;6503;48.572;13.460;2022-08-26T10:06:40;19.20;;;10.23;;
12869;SDS011;6503;48.572;13.460;2022-08-26T10:09:14;15.63;;;10.35;;
12869;SDS011;6503;48.572;13.460;2022-08-26T10:11:47;15.25;;;10.23;;
12869;SDS011;6503;48.572;13.460;2022-08-26T10:14:26;16.02;;;9.52;;
12869;SDS011;6503;48.572;13.460;2022-08-26T10:17:03;16.50;;;10.38;;
12869;SDS011;6503;48.572;13.460;2022-08-26T10:19:38;15.27;;;9.43;;
12869;SDS011;6503;48.572;13.460;2022-08-26T10:22:13;21.83;;;9.80;;
12869;SDS011;6503;48.572;13.460;2022-08-26T10:24:48;15.15;;;9.75;;
12869;SDS011;6503;48.572;13.460;2022-08-26T10:27:23;13.57;;;9.43;;
12869;SDS011;6503;48.572;13.460;2022-08-26T10:30:06;15.68;;;10.40;;
12869;SDS011;6503;48.572;13.460;2022-08-26T10:32:43;15.45;;;10.68;;
12869;SDS011;6503;48.572;13.460;2022-08-26T10:35:17;16.88;;;11.00;;
12869;SDS011;6503;48.572;13.460;2022-08-26T10:37:49;14.43;;;10.63;;
12869;SDS011;6503;48.572;13.460;2022-08-26T10:40:21;16.77;;;9.90;;
12869;SDS011;6503;48.572;13.460;2022-08-26T10:42:55;18.30;;;10.95;;
12869;SDS011;6503;48.572;13.460;2022-08-26T10:45:31;14.93;;;10.93;;
12869;SDS011;6503;48.572;13.460;2022-08-26T10:48:15;18.45;;;11.45;;
12869;SDS011;6503;48.572;13.460;2022-08-26T10:50:47;23.33;;;11.48;;
12869;SDS011;6503;48.572;13.460;2022-08-26T10:55:53;15.88;;;10.57;;
12869;SDS011;6503;48.572;13.460;2022-08-26T10:58:37;17.75;;;10.63;;
12869;SDS011;6503;48.572;13.460;2022-08-26T11:01:20;16.92;;;11.02;;
12869;SDS011;6503;48.572;13.460;2022-08-26T11:10:00;16.05;;;10.55;;
12869;SDS011;6503;48.572;13.460;2022-08-26T11:18:40;16.27;;;10.35;;
12869;SDS011;6503;48.572;13.460;2022-08-26T11:27:09;16.80;;;11.70;;
12869;SDS011;6503;48.572;13.460;2022-08-26T11:30:02;16.02;;;11.00;;
12869;SDS011;6503;48.572;13.460;2022-08-26T11:32:48;16.25;;;10.98;;
12869;SDS011;6503;48.572;13.460;2022-08-26T11:38:19;16.75;;;9.73;;
12869;SDS011;6503;48.572;13.460;2022-08-26T11:40:57;12.85;;;9.10;;
12869;SDS011;6503;48.572;13.460;2022-08-26T11:43:38;11.50;;;7.70;;
12869;SDS011;6503;48.572;13.460;2022-08-26T11:46:09;12.43;;;7.88;;
12869;SDS011;6503;48.572;13.460;2022-08-26T11:48:39;11.88;;;7.55;;
12869;SDS011;6503;48.572;13.460;2022-08-26T11:51:11;15.95;;;7.22;;
12869;SDS011;6503;48.572;13.460;2022-08-26T11:54:03;13.77;;;7.72;;
12869;SDS011;6503;48.572;13.460;2022-08-26T11:56:38;14.05;;;7.32;;
12869;SDS011;6503;48.572;13.460;2022-08-26T11:59:09;10.07;;;6.80;;
12869;SDS011;6503;48.572;13.460;2022-08-26T12:01:43;11.75;;;6.25;;
12869;SDS011;6503;48.572;13.460;2022-08-26T12:04:19;9.15;;;5.70;;
12869;SDS011;6503;48.572;13.460;2022-08-26T12:06:54;14.20;;;6.13;;
12869;SDS011;6503;48.572;13.460;2022-08-26T12:09:31;11.20;;;6.03;;
12869;SDS011;6503;48.572;13.460;2022-08-26T12:12:11;8.70;;;4.72;;
12869;SDS011;6503;48.572;13.460;2022-08-26T12:14:42;8.27;;;4.03;;
12869;SDS011;6503;48.572;13.460;2022-08-26T12:17:18;6.75;;;4.07;;
12869;SDS011;6503;48.572;13.460;2022-08-26T12:19:56;8.20;;;3.60;;
12869;SDS011;6503;48.572;13.460;2022-08-26T12:22:28;9.73;;;3.45;;
12869;SDS011;6503;48.572;13.460;2022-08-26T12:25:04;13.52;;;4.63;;
12869;SDS011;6503;48.572;13.460;2022-08-26T12:27:38;8.60;;;3.30;;
12869;SDS011;6503;48.572;13.460;2022-08-26T12:30:12;6.05;;;3.40;;
12869;SDS011;6503;48.572;13.460;2022-08-26T12:32:46;4.85;;;3.40;;
12869;SDS011;6503;48.572;13.460;2022-08-26T12:35:18;5.38;;;3.22;;
12869;SDS011;6503;48.572;13.460;2022-08-26T12:37:52;8.85;;;3.30;;
12869;SDS011;6503;48.572;13.460;2022-08-26T12:47:21;8.57;;;3.58;;
12869;SDS011;6503;48.572;13.460;2022-08-26T12:50:05;6.07;;;3.55;;
12869;SDS011;6503;48.572;13.460;2022-08-26T12:53:13;6.18;;;4.10;;
12869;SDS011;6503;48.572;13.460;2022-08-26T12:56:32;11.90;;;5.03;;
12869;SDS011;6503;48.572;13.460;2022-08-26T12:59:29;7.60;;;4.63;;
12869;SDS011;6503;48.572;13.460;2022-08-26T13:12:28;8.13;;;2.75;;
12869;SDS011;6503;48.572;13.460;2022-08-26T13:15:12;5.70;;;2.88;;
12869;SDS011;6503;48.572;13.460;2022-08-26T13:17:58;7.97;;;2.80;;
12869;SDS011;6503;48.572;13.460;2022-08-26T13:20:49;6.03;;;2.75;;
12869;SDS011;6503;48.572;13.460;2022-08-26T13:23:34;10.13;;;3.13;;
12869;SDS011;6503;48.572;13.460;2022-08-26T13:26:09;6.47;;;3.13;;
12869;SDS011;6503;48.572;13.460;2022-08-26T13:28:43;9.68;;;3.88;;
12869;SDS011;6503;48.572;13.460;2022-08-26T13:31:19;6.75;;;3.65;;
12869;SDS011;6503;48.572;13.460;2022-08-26T13:34:03;7.30;;;3.47;;
12869;SDS011;6503;48.572;13.460;2022-08-26T13:36:54;6.47;;;3.08;;
12869;SDS011;6503;48.572;13.460;2022-08-26T13:39:28;5.32;;;2.65;;
12869;SDS011;6503;48.572;13.460;2022-08-26T13:42:05;4.72;;;2.80;;
12869;SDS011;6503;48.572;13.460;2022-08-26T13:44:48;6.68;;;2.80;;
12869;SDS011;6503;48.572;13.460;2022-08-26T13:47:47;6.55;;;2.92;;
12869;SDS011;6503;48.572;13.460;2022-08-26T13:50:22;5.60;;;3.67;;
12869;SDS011;6503;48.572;13.460;2022-08-26T13:52:56;6.80;;;3.13;;
12869;SDS011;6503;48.572;13.460;2022-08-26T13:55:30;7.80;;;3.85;;
12869;SDS011;6503;48.572;13.460;2022-08-26T13:58:03;7.57;;;3.25;;
12869;SDS011;6503;48.572;13.460;2022-08-26T14:00:40;7.85;;;3.15;;
12869;SDS011;6503;48.572;13.460;2022-08-26T14:03:13;5.05;;;2.88;;
12869;SDS011;6503;48.572;13.460;2022-08-26T14:06:04;6.22;;;3.00;;
12869;SDS011;6503;48.572;13.460;2022-08-26T14:08:50;7.40;;;3.35;;
12869;SDS011;6503;48.572;13.460;2022-08-26T14:11:26;8.30;;;3.70;;
12869;SDS011;6503;48.572;13.460;2022-08-26T14:13:58;7.15;;;4.65;;
12869;SDS011;6503;48.572;13.460;2022-08-26T14:16:39;8.75;;;5.57;;
12869;SDS011;6503;48.572;13.460;2022-08-26T14:19:15;7.68;;;4.72;;
12869;SDS011;6503;48.572;13.460;2022-08-26T14:25:16;9.70;;;3.95;;
12869;SDS011;6503;48.572;13.460;2022-08-26T14:27:51;6.63;;;3.83;;
12869;SDS011;6503;48.572;13.460;2022-08-26T14:30:42;7.35;;;4.47;;
12869;SDS011;6503;48.572;13.460;2022-08-26T14:34:01;6.82;;;3.53;;
12869;SDS011;6503;48.572;13.460;2022-08-26T14:36:39;6.00;;;3.70;;
12869;SDS011;6503;48.572;13.460;2022-08-26T14:39:24;6.22;;;4.00;;
12869;SDS011;6503;48.572;13.460;2022-08-26T14:41:56;4.22;;;3.22;;
12869;SDS011;6503;48.572;13.460;2022-08-26T14:44:30;19.30;;;4.72;;
12869;SDS011;6503;48.572;13.460;2022-08-26T14:47:20;4.65;;;3.72;;
12869;SDS011;6503;48.572;13.460;2022-08-26T14:49:53;8.15;;;3.83;;
12869;SDS011;6503;48.572;13.460;2022-08-26T14:52:26;10.27;;;4.68;;
12869;SDS011;6503;48.572;13.460;2022-08-26T14:55:33;13.20;;;4.65;;
12869;SDS011;6503;48.572;13.460;2022-08-26T14:58:16;7.70;;;3.55;;
12869;SDS011;6503;48.572;13.460;2022-08-26T15:00:48;10.77;;;3.92;;
12869;SDS011;6503;48.572;13.460;2022-08-26T15:06:52;10.98;;;3.92;;
12869;SDS011;6503;48.572;13.460;2022-08-26T15:09:34;6.97;;;3.67;;
12869;SDS011;6503;48.572;13.460;2022-08-26T15:12:18;9.25;;;4.28;;
12869;SDS011;6503;48.572;13.460;2022-08-26T15:14:51;8.68;;;3.65;;
12869;SDS011;6503;48.572;13.460;2022-08-26T15:17:25;5.25;;;3.17;;
12869;SDS011;6503;48.572;13.460;2022-08-26T15:20:02;6.40;;;3.50;;
12869;SDS011;6503;48.572;13.460;2022-08-26T15:22:36;4.53;;;2.95;;
12869;SDS011;6503;48.572;13.460;2022-08-26T15:25:11;3.28;;;2.70;;
12869;SDS011;6503;48.572;13.460;2022-08-26T15:27:58;5.03;;;3.03;;
12869;SDS011;6503;48.572;13.460;2022-08-26T15:30:45;5.72;;;3.13;;
12869;SDS011;6503;48.572;13.460;2022-08-26T15:33:19;4.82;;;3.03;;
12869;SDS011;6503;48.572;13.460;2022-08-26T15:35:59;5.13;;;2.78;;
12869;SDS011;6503;48.572;13.460;2022-08-26T15:38:38;5.90;;;3.22;;
12869;SDS011;6503;48.572;13.460;2022-08-26T15:41:13;7.03;;;3.30;;
12869;SDS011;6503;48.572;13.460;2022-08-26T15:43:52;4.55;;;3.25;;
12869;SDS011;6503;48.572;13.460;2022-08-26T15:46:26;5.90;;;3.60;;
12869;SDS011;6503;48.572;13.460;2022-08-26T15:48:59;4.53;;;2.83;;
12869;SDS011;6503;48.572;13.460;2022-08-26T15:54:30;5.85;;;3.40;;
12869;SDS011;6503;48.572;13.460;2022-08-26T15:57:05;4.97;;;3.20;;
12869;SDS011;6503;48.572;13.460;2022-08-26T15:59:49;6.65;;;3.30;;
12869;SDS011;6503;48.572;13.460;2022-08-26T16:02:26;7.68;;;2.90;;
12869;SDS011;6503;48.572;13.460;2022-08-26T16:05:04;6.72;;;3.47;;
12869;SDS011;6503;48.572;13.460;2022-08-26T16:07:38;5.85;;;3.00;;
12869;SDS011;6503;48.572;13.460;2022-08-26T16:10:14;5.68;;;3.00;;
12869;SDS011;6503;48.572;13.460;2022-08-26T16:12:49;4.15;;;2.85;;
12869;SDS011;6503;48.572;13.460;2022-08-26T16:18:34;6.07;;;3.15;;
12869;SDS011;6503;48.572;13.460;2022-08-26T16:21:07;6.20;;;3.30;;
12869;SDS011;6503;48.572;13.460;2022-08-26T16:23:46;5.38;;;2.92;;
12869;SDS011;6503;48.572;13.460;2022-08-26T16:26:34;8.00;;;3.40;;
12869;SDS011;6503;48.572;13.460;2022-08-26T16:29:21;5.95;;;2.90;;
12869;SDS011;6503;48.572;13.460;2022-08-26T16:32:13;4.82;;;3.42;;
12869;SDS011;6503;48.572;13.460;2022-08-26T16:34:46;4.13;;;3.45;;